Flight Track Log - Related Links

Times and Time Zones

All times are in EDT time to prevent confusion due to time zone crossing. See the JIA2527 flight status page for this flight to view local times or setup timezone preferences in your user account.

Time Position Orientation Groundspeed Altitude Reporting Facility
EDT Latitude Longitude Course Direction KTS MPH feet Rate Location/Type
Mon 08:27:57 PM 34.7519 -77.7078 231° Southwest 188 216 2,000  Level Washington Center
Mon 08:28:00 PM 34.6461 -77.8627 230° Southwest  Level FlightAware Approximate
Mon 08:28:56 PM 34.7050 -77.7622 224° Southwest 223 257 4,300  Level Washington Center
Mon 08:29:00 PM 34.5864 -77.9480 230° Southwest  Level FlightAware Approximate
Mon 08:29:56 PM 34.6514 -77.8389 230° Southwest 262 302 8,200  Level Washington Center
Mon 08:30:00 PM 34.5274 -78.0339 231° Southwest  Level FlightAware Approximate
Mon 08:30:57 PM 34.6061 -77.9161 235° Southwest 280 322 11,000  Level Washington Center
Mon 08:31:00 PM 34.4695 -78.1208 231° Southwest  Level FlightAware Approximate
Mon 08:31:58 PM 34.5567 -77.9953 233° Southwest 292 336 13,100  Level Washington Center
Mon 08:32:00 PM 34.4158 -78.2013 231° Southwest  Level FlightAware Approximate
Mon 08:32:58 PM 34.5006 -78.0844 233° Southwest 317 365 14,300  Level Washington Center
Mon 08:33:00 PM 34.3621 -78.2819 231° Southwest  Level FlightAware Approximate
Mon 08:33:59 PM 34.4381 -78.1831 232° Southwest 350 403 15,600  Level Washington Center
Mon 08:35:55 PM 34.3214 -78.3872 235° Southwest 367 422 18,600 1,466 Climbing Jacksonville Center
Mon 08:36:55 PM 34.3111 -78.5136 264° West 367 422 19,900 700 Climbing Jacksonville Center
Mon 08:37:55 PM 34.3031 -78.6447 266° West 378 435 20,000 50 Climbing Jacksonville Center
Mon 08:38:55 PM 34.2931 -78.7808 265° West 399 459 20,000  Level Jacksonville Center
Mon 08:39:55 PM 34.2831 -78.9244 265° West 420 483 20,000  Level Jacksonville Center
Mon 08:40:55 PM 34.2750 -79.0656 266° West 425 489 20,000  Level Jacksonville Center
Mon 08:41:55 PM 34.2811 -79.2036 273° West 425 489 20,000  Level Jacksonville Center
Mon 08:42:55 PM 34.3308 -79.3347 295° West 412 474 20,000  Level Jacksonville Center
Mon 08:43:55 PM 34.3781 -79.4611 294° West 412 474 20,000 -850 Level Jacksonville Center
Mon 08:44:55 PM 34.4208 -79.5775 294° West 407 468 18,300 -1,500 Descending Jacksonville Center
Mon 08:45:55 PM 34.4656 -79.6917 295° West 395 455 17,000 -1,250 Descending Jacksonville Center
Mon 08:46:55 PM 34.5078 -79.7961 296° West 389 448 15,800 -1,350 Descending Jacksonville Center
Mon 08:47:55 PM 34.5483 -79.9181 292° West 366 421 14,300 -1,350 Descending Jacksonville Center
Mon 08:48:55 PM 34.5883 -80.0225 295° West 352 405 13,100 -1,185 Descending Jacksonville Center
Mon 08:50:37 PM 34.6461 -80.1908 293° West 310 357 11,100 -773 Descending Atlanta Center
Mon 08:51:38 PM 34.6922 -80.2697 305° West 281 323 11,000 -49 Descending Atlanta Center
Mon 08:52:39 PM 34.7447 -80.3506 308° West 274 315 11,000  Level Atlanta Center
Mon 08:53:40 PM 34.7928 -80.4219 309° West 281 323 11,000  Level Atlanta Center
Mon 08:54:41 PM 34.8408 -80.4983 307° West 284 327 11,000  Level Atlanta Center
Mon 08:55:42 PM 34.8869 -80.5722 307° West 278 320 11,000  Level Atlanta Center
Mon 08:56:43 PM 34.9408 -80.6383 315° West 276 318 11,000  Level Atlanta Center
Mon 08:57:43 PM 34.9992 -80.7122 314° West 282 325 11,000 -248 Level Atlanta Center
Mon 08:58:44 PM 35.0469 -80.7736 314° West 238 274 10,500 -934 Descending Atlanta Center
Mon 08:59:45 PM 35.0978 -80.8122 328° Northwest 217 250 9,100 -885 Descending Atlanta Center
Mon 09:00:46 PM 35.1586 -80.8200 354° North 216 249 8,700 -1,082 Descending Atlanta Center
Mon 09:01:47 PM 35.2164 -80.7897 23° Northeast 228 262 6,900 -1,525 Descending Atlanta Center
Mon 09:02:48 PM 35.2564 -80.7347 48° Northeast 216 249 5,600 -1,426 Descending Atlanta Center
Mon 09:03:49 PM 35.2961 -80.7333 North 169 194 4,000 -1,574 Descending Atlanta Center

Login

Don't have an account? Register now (free) for customized features, flight alerts, and more!